createdAt,value
2023-04-08T00:01:49.227Z,99268.80
2023-04-08T00:04:17.450Z,99263.74
2023-04-08T00:06:48.941Z,99269.73
2023-04-08T00:09:17.383Z,99264.69
2023-04-08T00:11:45.421Z,99262.26
2023-04-08T00:14:14.766Z,99261.52
2023-04-08T00:16:43.881Z,99261.60
2023-04-08T00:19:12.477Z,99262.91
2023-04-08T00:21:43.644Z,99263.17
2023-04-08T00:24:12.484Z,99260.34
2023-04-08T00:26:40.603Z,99264.52
2023-04-08T00:29:09.201Z,99273.04
2023-04-08T00:31:37.416Z,99273.51
2023-04-08T00:34:05.540Z,99273.23
2023-04-08T00:36:36.359Z,99269.82
2023-04-08T00:39:06.860Z,99266.25
2023-04-08T00:41:36.284Z,99268.96
2023-04-08T00:44:05.610Z,99273.20
2023-04-08T00:46:36.943Z,99273.45
2023-04-08T00:49:07.589Z,99274.29
2023-04-08T00:51:38.481Z,99273.39
2023-04-08T00:54:07.637Z,99275.45
2023-04-08T00:56:36.790Z,99273.96
2023-04-08T00:59:04.781Z,99274.31
2023-04-08T01:01:58.165Z,99271.56
2023-04-08T01:04:41.335Z,99262.27
2023-04-08T01:07:41.681Z,99264.85
2023-04-08T01:10:23.820Z,99265.29
2023-04-08T01:12:54.674Z,99268.77
2023-04-08T01:15:23.791Z,99269.33
2023-04-08T01:17:54.619Z,99269.20
2023-04-08T01:20:24.254Z,99268.55
2023-04-08T01:22:58.501Z,99267.16
2023-04-08T01:25:37.176Z,99265.68
2023-04-08T01:28:10.693Z,99269.60
2023-04-08T01:30:40.649Z,99269.54
2023-04-08T01:33:10.434Z,99272.67
2023-04-08T01:35:38.722Z,99270.78
2023-04-08T01:38:09.946Z,99269.86
2023-04-08T01:40:38.315Z,99268.52
2023-04-08T01:43:07.938Z,99269.61
2023-04-08T01:45:36.203Z,99267.27
2023-04-08T01:48:04.543Z,99268.48
2023-04-08T01:50:33.556Z,99267.45
2023-04-08T01:53:01.556Z,99263.91
2023-04-08T01:55:29.668Z,99265.83
2023-04-08T01:57:59.944Z,99261.60
2023-04-08T02:00:32.604Z,99263.60
2023-04-08T02:03:03.083Z,99261.41
2023-04-08T02:05:32.054Z,99260.35
2023-04-08T02:08:00.829Z,99261.74
2023-04-08T02:10:33.972Z,99261.36
2023-04-08T02:13:03.810Z,99264.19
2023-04-08T02:15:34.668Z,99266.61
2023-04-08T02:18:15.587Z,99264.50
2023-04-08T02:20:45.961Z,99261.09
2023-04-08T02:23:25.162Z,99253.65
2023-04-08T02:25:53.448Z,99248.54
2023-04-08T02:28:21.422Z,99251.99
2023-04-08T02:30:54.739Z,99252.25
2023-04-08T02:33:24.689Z,99246.98
2023-04-08T02:35:54.982Z,99246.20
2023-04-08T02:38:31.674Z,99247.90
2023-04-08T02:40:59.881Z,99249.46
2023-04-08T02:43:32.613Z,99248.41
2023-04-08T02:46:07.442Z,99249.64
2023-04-08T02:48:40.306Z,99251.23
2023-04-08T02:51:09.233Z,99250.13
2023-04-08T02:53:39.300Z,99249.73
2023-04-08T02:56:11.800Z,99253.06
2023-04-08T02:58:40.477Z,99262.30
2023-04-08T03:01:09.472Z,99268.44
2023-04-08T03:03:40.733Z,99268.69
2023-04-08T03:06:09.158Z,99265.80
2023-04-08T03:08:37.257Z,99269.44
2023-04-08T03:11:06.209Z,99267.94
2023-04-08T03:13:35.594Z,99265.42
2023-04-08T03:16:03.869Z,99272.27
2023-04-08T03:18:34.293Z,99275.81
2023-04-08T03:21:03.450Z,99271.38
2023-04-08T03:23:35.792Z,99270.40
2023-04-08T03:26:04.096Z,99274.59
2023-04-08T03:28:32.127Z,99274.16
2023-04-08T03:31:03.252Z,99274.21
2023-04-08T03:33:31.464Z,99270.84
2023-04-08T03:35:59.445Z,99271.39
2023-04-08T03:38:27.990Z,99272.59
2023-04-08T03:40:55.983Z,99271.56
2023-04-08T03:43:27.705Z,99273.14
2023-04-08T03:45:56.322Z,99274.91
2023-04-08T03:48:25.213Z,99275.84
2023-04-08T03:50:53.505Z,99275.55
2023-04-08T03:53:23.456Z,99276.70
2023-04-08T03:55:51.450Z,99277.52
2023-04-08T03:58:19.728Z,99279.84
2023-04-08T04:00:48.227Z,99281.63
2023-04-08T04:03:17.931Z,99277.45
2023-04-08T04:05:46.308Z,99283.75
2023-04-08T04:08:15.534Z,99288.61
2023-04-08T04:10:43.505Z,99284.34
2023-04-08T04:13:11.756Z,99287.79
2023-04-08T04:15:40.534Z,99283.68
2023-04-08T04:18:08.947Z,99284.50
2023-04-08T04:20:41.615Z,99287.09
2023-04-08T04:23:09.954Z,99286.55
2023-04-08T04:25:41.760Z,99288.44
2023-04-08T04:28:17.209Z,99289.93
2023-04-08T04:30:47.430Z,99291.73
2023-04-08T04:33:16.045Z,99295.61
2023-04-08T04:35:45.136Z,99296.00
2023-04-08T04:38:13.496Z,99298.34
2023-04-08T04:40:42.016Z,99295.52
2023-04-08T04:43:10.491Z,99301.42
2023-04-08T04:45:38.491Z,99302.05
2023-04-08T04:48:07.173Z,99304.93
2023-04-08T04:50:35.341Z,99308.92
2023-04-08T04:53:05.638Z,99311.61
2023-04-08T04:55:33.921Z,99308.50
2023-04-08T04:58:02.235Z,99306.52
2023-04-08T05:00:30.651Z,99313.20
2023-04-08T05:03:02.818Z,99312.13
2023-04-08T05:05:31.575Z,99312.06
2023-04-08T05:07:59.938Z,99316.33
2023-04-08T05:10:28.295Z,99316.34
2023-04-08T05:12:57.441Z,99320.08
2023-04-08T05:15:27.680Z,99323.33
2023-04-08T05:17:56.025Z,99324.00
2023-04-08T05:20:23.992Z,99326.55
2023-04-08T05:22:56.758Z,99326.34
2023-04-08T05:25:25.146Z,99330.37
2023-04-08T05:27:53.624Z,99330.77
2023-04-08T05:30:21.791Z,99333.20
2023-04-08T05:32:51.049Z,99331.55
2023-04-08T05:35:18.998Z,99331.89
2023-04-08T05:37:46.968Z,99330.06
2023-04-08T05:40:14.942Z,99326.69
2023-04-08T05:42:43.465Z,99326.61
2023-04-08T05:45:11.889Z,99327.13
2023-04-08T05:47:42.226Z,99328.98
2023-04-08T05:50:11.455Z,99330.27
2023-04-08T05:52:47.544Z,99335.23
2023-04-08T05:55:15.625Z,99333.94
2023-04-08T05:57:43.706Z,99334.45
2023-04-08T06:00:11.996Z,99331.81
2023-04-08T06:02:42.029Z,99333.06
2023-04-08T06:18:22.007Z,99330.76
2023-04-08T06:20:51.173Z,99335.27
2023-04-08T06:23:19.453Z,99338.05
2023-04-08T06:25:47.742Z,99337.84
2023-04-08T06:28:16.237Z,99342.69
2023-04-08T06:30:48.659Z,99345.95
2023-04-08T06:33:16.587Z,99346.48
2023-04-08T06:35:44.556Z,99340.69
2023-04-08T06:38:13.175Z,99341.91
2023-04-08T06:40:41.785Z,99344.71
2023-04-08T06:43:10.383Z,99346.36
2023-04-08T06:45:42.984Z,99348.47
2023-04-08T06:48:12.153Z,99352.19
2023-04-08T06:50:40.607Z,99350.39
2023-04-08T06:53:09.661Z,99350.11
2023-04-08T06:55:37.669Z,99353.24
2023-04-08T06:58:08.440Z,99352.23
2023-04-08T07:00:37.234Z,99351.95
2023-04-08T07:03:12.046Z,99353.49
2023-04-08T07:05:42.200Z,99354.06
2023-04-08T07:08:10.620Z,99354.83
2023-04-08T07:10:40.114Z,99354.41
2023-04-08T07:13:08.553Z,99359.10
2023-04-08T07:15:37.287Z,99356.49
2023-04-08T07:18:06.204Z,99365.88
2023-04-08T07:20:38.270Z,99365.13
2023-04-08T07:23:06.601Z,99370.80
2023-04-08T07:25:35.978Z,99366.55
2023-04-08T07:28:04.204Z,99367.84
2023-04-08T07:30:33.301Z,99364.05
2023-04-08T07:33:01.607Z,99364.76
2023-04-08T07:35:38.113Z,99369.08
2023-04-08T07:38:11.480Z,99369.61
2023-04-08T07:40:39.570Z,99371.20
2023-04-08T07:43:09.656Z,99373.46
2023-04-08T07:45:37.577Z,99373.86
2023-04-08T07:48:06.123Z,99371.34
2023-04-08T07:51:09.255Z,99362.81
2023-04-08T07:53:28.829Z,99366.41
2023-04-08T07:55:57.051Z,99365.46
2023-04-08T07:58:25.404Z,99370.63
2023-04-08T08:00:53.800Z,99365.00
2023-04-08T08:03:23.558Z,99364.08
2023-04-08T08:05:51.721Z,99362.59
2023-04-08T08:08:21.995Z,99366.71
2023-04-08T08:10:49.923Z,99361.02
2023-04-08T08:13:21.352Z,99367.84
2023-04-08T08:15:53.998Z,99364.62
2023-04-08T08:18:23.107Z,99362.91
2023-04-08T08:20:51.495Z,99360.27
2023-04-08T08:23:20.102Z,99357.77
2023-04-08T08:25:48.058Z,99368.48
2023-04-08T08:28:22.980Z,99368.11
2023-04-08T08:30:51.094Z,99365.16
2023-04-08T08:33:19.478Z,99367.90
2023-04-08T08:35:47.456Z,99365.83
2023-04-08T08:38:18.519Z,99365.69
2023-04-08T08:40:46.779Z,99365.64
2023-04-08T08:43:15.737Z,99362.79
2023-04-08T08:45:43.718Z,99362.91
2023-04-08T08:48:12.002Z,99355.70
2023-04-08T08:50:39.939Z,99360.44
2023-04-08T08:53:10.999Z,99362.67
2023-04-08T08:56:05.602Z,99366.71
2023-04-08T08:58:28.762Z,99363.36
2023-04-08T09:00:57.756Z,99369.09
2023-04-08T09:03:30.247Z,99368.80
2023-04-08T09:06:02.170Z,99363.44
2023-04-08T09:08:33.338Z,99368.06
2023-04-08T09:11:15.791Z,99371.13
2023-04-08T09:13:47.569Z,99365.39
2023-04-08T09:16:20.507Z,99364.88
2023-04-08T09:18:49.755Z,99368.34
2023-04-08T09:21:18.463Z,99365.71
2023-04-08T09:23:51.397Z,99364.95
2023-04-08T09:26:24.324Z,99367.46
2023-04-08T09:29:14.363Z,99365.30
2023-04-08T09:31:58.429Z,99369.58
2023-04-08T09:34:27.714Z,99366.63
2023-04-08T09:36:57.140Z,99370.79
2023-04-08T09:39:25.843Z,99365.31
2023-04-08T09:41:54.156Z,99369.31
2023-04-08T09:44:23.206Z,99368.62
2023-04-08T09:47:06.003Z,99369.53
2023-04-08T09:49:57.612Z,99375.50
2023-04-08T09:52:42.917Z,99373.78
2023-04-08T09:55:14.846Z,99373.25
2023-04-08T09:58:03.376Z,99370.90
2023-04-08T10:00:44.220Z,99369.91
2023-04-08T10:03:25.250Z,99373.91
2023-04-08T10:05:59.923Z,99373.37
2023-04-08T10:08:31.642Z,99371.90
2023-04-08T10:11:00.225Z,99374.10
2023-04-08T10:13:35.369Z,99374.77
2023-04-08T10:16:17.409Z,99375.27
2023-04-08T10:18:45.473Z,99371.41
2023-04-08T10:21:48.009Z,99373.73
2023-04-08T10:24:15.981Z,99371.23
2023-04-08T10:26:45.683Z,99372.71
2023-04-08T10:29:19.941Z,99372.41
2023-04-08T10:31:49.523Z,99371.02
2023-04-08T10:34:26.341Z,99372.12
2023-04-08T10:36:55.882Z,99377.15
2023-04-08T10:39:27.651Z,99373.61
2023-04-08T10:41:56.600Z,99372.90
2023-04-08T10:44:27.453Z,99375.14
2023-04-08T10:46:55.928Z,99379.95
2023-04-08T10:49:24.164Z,99382.39
2023-04-08T10:51:56.618Z,99382.30
2023-04-08T10:54:24.808Z,99379.76
2023-04-08T10:56:53.663Z,99376.53
2023-04-08T10:59:29.349Z,99373.73
2023-04-08T11:01:58.583Z,99373.45
2023-04-08T11:04:27.580Z,99375.84
2023-04-08T11:06:56.226Z,99373.19
2023-04-08T11:09:24.428Z,99362.97
2023-04-08T11:11:53.704Z,99367.46
2023-04-08T11:14:23.954Z,99361.46
2023-04-08T11:16:52.664Z,99359.31
2023-04-08T11:19:20.662Z,99355.02
2023-04-08T11:21:48.671Z,99346.45
2023-04-08T11:24:17.059Z,99343.18
2023-04-08T11:26:47.982Z,99339.90
2023-04-08T11:29:17.086Z,99339.77
2023-04-08T11:31:45.100Z,99338.54
2023-04-08T11:34:22.463Z,99340.82
2023-04-08T11:36:51.470Z,99341.58
2023-04-08T11:39:22.952Z,99334.67
2023-04-08T11:41:51.170Z,99330.90
2023-04-08T11:44:19.231Z,99326.77
2023-04-08T11:46:57.476Z,99316.80
2023-04-08T11:49:25.780Z,99311.25
2023-04-08T11:51:56.444Z,99317.75
2023-04-08T11:54:32.440Z,99317.93
2023-04-08T11:57:01.243Z,99311.90
2023-04-08T11:59:30.973Z,99314.33
2023-04-08T12:01:59.302Z,99314.51
2023-04-08T12:04:27.688Z,99303.61
2023-04-08T12:06:58.382Z,99292.61
2023-04-08T12:09:27.350Z,99292.39
2023-04-08T12:11:57.692Z,99296.81
2023-04-08T12:14:28.244Z,99284.27
2023-04-08T12:16:57.109Z,99286.71
2023-04-08T12:19:33.878Z,99291.52
2023-04-08T12:22:03.561Z,99289.96
2023-04-08T12:24:31.700Z,99290.77
2023-04-08T12:26:59.750Z,99282.79
2023-04-08T12:29:28.043Z,99283.00
2023-04-08T12:31:56.063Z,99287.42
2023-04-08T12:34:24.941Z,99278.00
2023-04-08T12:36:52.931Z,99281.23
2023-04-08T12:39:23.250Z,99281.81
2023-04-08T12:41:51.256Z,99281.52
2023-04-08T12:44:19.731Z,99278.48
2023-04-08T12:46:52.663Z,99281.36
2023-04-08T12:49:20.930Z,99279.02
2023-04-08T12:51:53.781Z,99276.36
2023-04-08T12:54:22.402Z,99269.50
2023-04-08T12:56:50.414Z,99268.91
2023-04-08T12:59:20.383Z,99270.34
2023-04-08T13:01:48.481Z,99268.81
2023-04-08T13:04:16.515Z,99266.83
2023-04-08T13:06:46.425Z,99270.66
2023-04-08T13:09:15.292Z,99270.54
2023-04-08T13:11:45.899Z,99273.70
2023-04-08T13:14:18.489Z,99270.02
2023-04-08T13:16:46.598Z,99266.54
2023-04-08T13:19:16.469Z,99265.02
2023-04-08T13:21:46.246Z,99268.59
2023-04-08T13:24:14.513Z,99271.15
2023-04-08T13:26:42.562Z,99248.11
2023-04-08T13:29:16.020Z,99263.83
2023-04-08T13:31:47.727Z,99248.52
2023-04-08T13:34:15.899Z,99279.20
2023-04-08T13:36:44.651Z,99292.24
2023-04-08T13:39:13.894Z,99293.55
2023-04-08T13:41:42.063Z,99291.33
2023-04-08T13:44:11.500Z,99298.72
2023-04-08T13:46:39.654Z,99303.43
2023-04-08T13:49:11.009Z,99298.68
2023-04-08T13:51:39.550Z,99288.91
2023-04-08T13:54:08.742Z,99315.78
2023-04-08T13:56:38.255Z,99328.31
2023-04-08T13:59:06.260Z,99335.53
2023-04-08T14:01:35.671Z,99331.92
2023-04-08T14:04:04.352Z,99324.30
2023-04-08T14:06:32.485Z,99346.64
2023-04-08T14:09:03.303Z,99344.50
2023-04-08T14:11:31.811Z,99339.20
2023-04-08T14:14:00.378Z,99339.28
2023-04-08T14:16:31.000Z,99339.41
2023-04-08T14:18:59.487Z,99329.42
2023-04-08T14:21:27.662Z,99332.44
2023-04-08T14:23:55.582Z,99333.48
2023-04-08T14:26:25.110Z,99331.52
2023-04-08T14:29:00.691Z,99333.05
2023-04-08T14:31:29.168Z,99332.70
2023-04-08T14:33:57.235Z,99321.98
2023-04-08T14:36:26.108Z,99323.23
2023-04-08T14:38:55.299Z,99321.73
2023-04-08T14:41:26.326Z,99319.43
2023-04-08T14:43:54.476Z,99312.24
2023-04-08T14:46:22.731Z,99309.76
2023-04-08T14:48:51.446Z,99307.69
2023-04-08T14:51:19.770Z,99306.27
2023-04-08T14:53:56.098Z,99302.89
2023-04-08T14:56:24.867Z,99301.86
2023-04-08T14:58:53.622Z,99298.39
2023-04-08T15:01:21.687Z,99297.78
2023-04-08T15:03:49.897Z,99293.85
2023-04-08T15:06:21.859Z,99292.06
2023-04-08T15:08:50.968Z,99293.92
2023-04-08T15:11:22.247Z,99297.76
2023-04-08T15:13:59.393Z,99300.84
2023-04-08T15:16:28.033Z,99309.71
2023-04-08T15:18:59.795Z,99311.85
2023-04-08T15:21:29.486Z,99314.16
2023-04-08T15:23:58.291Z,99316.84
2023-04-08T15:26:27.559Z,99315.80
2023-04-08T15:28:59.736Z,99315.69
2023-04-08T15:31:27.690Z,99321.06
2023-04-08T15:33:56.521Z,99325.22
2023-04-08T15:36:25.140Z,99322.17
2023-04-08T15:38:53.444Z,99323.42
2023-04-08T15:41:22.349Z,99328.02
2023-04-08T15:43:50.278Z,99333.66
2023-04-08T15:46:19.445Z,99340.67
2023-04-08T15:48:48.670Z,99346.85
2023-04-08T15:51:18.089Z,99354.92
2023-04-08T15:53:46.150Z,99366.36
2023-04-08T15:56:16.446Z,99369.89
2023-04-08T15:58:46.169Z,99379.43
2023-04-08T16:01:14.349Z,99383.14
2023-04-08T16:03:44.695Z,99380.65
2023-04-08T16:06:14.109Z,99380.73
2023-04-08T16:08:43.504Z,99381.38
2023-04-08T16:11:11.957Z,99384.71
2023-04-08T16:13:42.628Z,99382.27
2023-04-08T16:16:12.508Z,99381.77
2023-04-08T16:18:42.165Z,99380.73
2023-04-08T16:21:10.426Z,99383.91
2023-04-08T16:23:38.946Z,99387.23
2023-04-08T16:26:10.247Z,99390.00
2023-04-08T16:28:40.155Z,99391.17
2023-04-08T16:31:08.364Z,99390.37
2023-04-08T16:33:38.966Z,99395.52
2023-04-08T16:36:07.100Z,99396.48
2023-04-08T16:38:35.736Z,99401.99
2023-04-08T16:41:09.981Z,99405.13
2023-04-08T16:43:38.349Z,99403.53
2023-04-08T16:46:13.017Z,99399.88
2023-04-08T16:48:42.088Z,99403.52
2023-04-08T16:51:10.521Z,99402.18
2023-04-08T16:53:38.870Z,99401.89
2023-04-08T16:56:14.986Z,99399.54
2023-04-08T16:58:43.534Z,99402.88
2023-04-08T17:01:14.349Z,99403.40
2023-04-08T17:03:45.150Z,99408.70
2023-04-08T17:06:17.460Z,99412.03
2023-04-08T17:08:49.073Z,99414.04
2023-04-08T17:11:17.504Z,99414.17
2023-04-08T17:13:51.365Z,99418.92
2023-04-08T17:16:19.932Z,99420.34
2023-04-08T17:18:50.543Z,99417.20
2023-04-08T17:21:18.775Z,99417.84
2023-04-08T17:23:52.320Z,99417.20
2023-04-08T17:26:22.261Z,99422.55
2023-04-08T17:28:50.566Z,99424.36
2023-04-08T17:31:18.498Z,99432.48
2023-04-08T17:33:46.531Z,99428.63
2023-04-08T17:36:17.634Z,99429.27
2023-04-08T17:38:49.472Z,99432.67
2023-04-08T17:41:29.906Z,99432.02
2023-04-08T17:44:07.863Z,99431.23
2023-04-08T17:46:37.014Z,99435.19
2023-04-08T17:49:07.457Z,99436.13
2023-04-08T17:51:37.348Z,99435.17
2023-04-08T17:54:06.004Z,99438.50
2023-04-08T17:56:39.082Z,99443.75
2023-04-08T17:59:07.725Z,99450.35
2023-04-08T18:01:41.432Z,99449.80
2023-04-08T18:04:12.488Z,99452.27
2023-04-08T18:06:41.213Z,99455.13
2023-04-08T18:09:12.820Z,99456.51
2023-04-08T18:11:41.516Z,99454.90
2023-04-08T18:14:10.001Z,99461.65
2023-04-08T18:16:44.414Z,99462.58
2023-04-08T18:19:15.942Z,99460.35
2023-04-08T18:21:44.258Z,99459.39
2023-04-08T18:24:13.449Z,99467.19
2023-04-08T18:26:42.727Z,99466.23
2023-04-08T18:29:12.193Z,99471.19
2023-04-08T18:31:40.421Z,99470.95
2023-04-08T18:36:09.194Z,99470.08
2023-04-08T18:38:38.316Z,99472.64
2023-04-08T18:41:06.890Z,99477.16
2023-04-08T18:43:35.768Z,99476.87
2023-04-08T18:46:06.303Z,99475.99
2023-04-08T18:48:34.652Z,99474.07
2023-04-08T18:51:02.796Z,99475.01
2023-04-08T18:53:31.274Z,99479.15
2023-04-08T18:56:00.438Z,99480.13
2023-04-08T18:58:32.079Z,99479.15
2023-04-08T19:01:00.062Z,99476.82
2023-04-08T19:03:29.285Z,99476.44
2023-04-08T19:05:57.226Z,99477.42
2023-04-08T19:08:25.337Z,99477.73
2023-04-08T19:10:53.230Z,99482.63
2023-04-08T19:13:23.889Z,99482.44
2023-04-08T19:15:51.921Z,99481.27
2023-04-08T19:18:20.740Z,99480.58
2023-04-08T19:20:49.394Z,99479.42
2023-04-08T19:23:20.078Z,99476.05
2023-04-08T19:25:48.321Z,99469.17
2023-04-08T19:28:16.444Z,99468.08
2023-04-08T19:30:44.371Z,99459.77
2023-04-08T19:33:12.632Z,99459.39
2023-04-08T19:35:40.941Z,99462.11
2023-04-08T19:38:10.338Z,99461.66
2023-04-08T19:40:38.384Z,99456.70
2023-04-08T19:43:07.834Z,99460.58
2023-04-08T19:45:37.388Z,99462.73
2023-04-08T19:48:11.589Z,99458.77
2023-04-08T19:50:42.778Z,99458.54
2023-04-08T19:53:10.887Z,99456.83
2023-04-08T19:55:39.802Z,99461.37
2023-04-08T19:58:11.373Z,99456.05
2023-04-08T20:00:40.740Z,99452.95
2023-04-08T20:03:10.320Z,99453.48
2023-04-08T20:05:38.714Z,99446.98
2023-04-08T20:08:07.630Z,99444.58
2023-04-08T20:10:37.275Z,99446.43
2023-04-08T20:13:05.276Z,99444.56
2023-04-08T20:15:33.418Z,99444.36
2023-04-08T20:18:01.938Z,99446.41
2023-04-08T20:20:32.740Z,99446.24
2023-04-08T20:23:01.286Z,99447.81
2023-04-08T20:25:29.775Z,99445.83
2023-04-08T20:28:00.412Z,99441.17
2023-04-08T20:30:28.678Z,99440.40
2023-04-08T20:32:57.030Z,99439.52
2023-04-08T20:35:25.005Z,99436.98
2023-04-08T20:37:53.722Z,99429.10
2023-04-08T20:40:23.189Z,99429.90
2023-04-08T20:42:51.152Z,99432.06
2023-04-08T20:45:19.363Z,99432.66
2023-04-08T20:47:50.875Z,99430.65
2023-04-08T20:50:19.647Z,99431.72
2023-04-08T20:52:51.705Z,99430.65
2023-04-08T20:55:19.637Z,99429.82
2023-04-08T20:57:48.056Z,99429.25
2023-04-08T21:00:17.366Z,99427.83
2023-04-08T21:02:46.482Z,99427.80
2023-04-08T21:05:14.614Z,99424.48
2023-04-08T21:07:44.865Z,99424.65
2023-04-08T21:10:14.466Z,99422.52
2023-04-08T21:12:47.551Z,99420.73
2023-04-08T21:15:15.667Z,99419.12
2023-04-08T21:17:47.940Z,99420.45
2023-04-08T21:20:16.359Z,99422.33
2023-04-08T21:22:46.828Z,99428.60
2023-04-08T21:25:14.732Z,99427.30
2023-04-08T21:27:46.207Z,99431.22
2023-04-08T21:30:14.513Z,99430.10
2023-04-08T21:32:42.698Z,99429.95
2023-04-08T21:35:11.148Z,99431.74
2023-04-08T21:37:39.398Z,99433.92
2023-04-08T21:40:08.305Z,99433.81
2023-04-08T21:42:36.522Z,99432.48
2023-04-08T21:45:06.506Z,99433.91
2023-04-08T21:47:35.039Z,99432.98
2023-04-08T21:50:03.573Z,99427.45
2023-04-08T21:52:31.884Z,99427.80
2023-04-08T21:54:59.875Z,99430.34
2023-04-08T21:57:28.076Z,99430.21
2023-04-08T21:59:56.028Z,99431.40
2023-04-08T22:02:24.309Z,99433.59
2023-04-08T22:04:52.635Z,99435.70
2023-04-08T22:07:20.999Z,99437.67
2023-04-08T22:09:50.425Z,99435.99
2023-04-08T22:12:19.068Z,99435.54
2023-04-08T22:14:53.514Z,99439.23
2023-04-08T22:17:22.723Z,99437.75
2023-04-08T22:19:50.953Z,99441.43
2023-04-08T22:22:21.206Z,99436.38
2023-04-08T22:24:49.497Z,99434.95
2023-04-08T22:27:18.552Z,99436.73
2023-04-08T22:29:50.909Z,99434.42
2023-04-08T22:32:19.720Z,99434.51
2023-04-08T22:34:48.151Z,99434.20
2023-04-08T22:37:16.650Z,99434.80
2023-04-08T22:39:44.815Z,99436.79
2023-04-08T22:42:12.727Z,99433.79
2023-04-08T22:44:41.807Z,99434.73
2023-04-08T22:47:10.017Z,99437.21
2023-04-08T22:49:37.953Z,99439.30
2023-04-08T22:52:06.228Z,99439.70
2023-04-08T22:54:34.177Z,99432.67
2023-04-08T22:57:02.514Z,99428.04
2023-04-08T22:59:33.969Z,99426.91
2023-04-08T23:02:02.150Z,99428.17
2023-04-08T23:04:32.493Z,99427.44
2023-04-08T23:07:04.600Z,99422.88
2023-04-08T23:09:32.572Z,99426.34
2023-04-08T23:12:01.623Z,99423.40
2023-04-08T23:14:32.680Z,99419.98
2023-04-08T23:17:04.235Z,99416.20
2023-04-08T23:19:33.464Z,99415.30
2023-04-08T23:22:05.632Z,99419.61
2023-04-08T23:24:34.314Z,99415.89
2023-04-08T23:27:02.574Z,99411.59
2023-04-08T23:29:31.664Z,99416.83
2023-04-08T23:32:03.195Z,99414.23
2023-04-08T23:34:36.014Z,99414.69
2023-04-08T23:37:05.820Z,99416.64
2023-04-08T23:39:34.708Z,99417.48
2023-04-08T23:42:02.881Z,99415.70
2023-04-08T23:44:30.915Z,99416.83
2023-04-08T23:46:59.169Z,99416.63
2023-04-08T23:49:30.057Z,99419.38
2023-04-08T23:51:57.956Z,99417.20
2023-04-08T23:54:33.988Z,99417.67
2023-04-08T23:57:02.410Z,99415.51
2023-04-08T23:59:33.097Z,99414.54
